Ride Results

Tom Quilty Gold Cup (30-05-1992)
Ride distance: 160.0 km

Outcomes - Tom Quilty Gold Cup (30-05-1992)
Division No. of Entries Retired / DNE Completed Withdrawn Ineligible V/O Percentage Completed
HW 31 - 14 2 1 14 45.16%
MW 59 - 34 3 1 21 57.63%
LW 25 - 12 1 - 12 48.00%
JN 15 - 6 - - 9 40.00%
Totals 130 - 66 6 2 56 50.77%
Results - Tom Quilty Gold Cup (30-05-1992)
No. Rider Horse Place Time Leg Speeds Total
Km/Hr
H/R bpm
Heavyweight
64 Robert Berry Tarrangower Irish Monarch 1 14:23:00 15.9, 10.4, 12.0, 7.8 11.12 38, 46, 46, 54, 54 (Avg:50)
45 Trevor Deudney Karakatana Kovax 2 14:23:05 15.9, 10.4, 12.0, 7.7 11.12 36, 44, 46, 48, 50 (Avg:47)
98 Allan Renner Edenfels Pepperina 3 (BC) 14:26:00 13.5, 9.4, 11.8, 10.6 11.09 28, 34, 42, 48, 48 (Avg:43)
1 Sandra Bathurst Moonraker 4 15:58:00 11.6, 10.7, 12.3, 6.3 10.02 33, 38, 44, 48, 46 (Avg:44)
68 Ian Rooney Kelkette Park Dominic 5 16:22:05 13.6, 10.0, 9.9, 6.6 9.78 33, 40, 56, 56, 54 (Avg:51)
87 David Somerville E-T 6 16:33:00 14.0, 8.2, 10.8, 7.4 9.67 40, 42, 41, 50, 40 (Avg:43)
43 Mark Cameron Nattahl Shayne 7 17:48:00 12.1, 8.7, 10.7, 5.8 8.99 36, 46, 50, 52, 50 (Avg:49)
71 Frank Muddyman Bidgee 8 19:07:00 11.1, 7.5, 9.7, 6.1 8.37 30, 50, 52, 50, 48 (Avg:50)
61 Steve Finnane Glenallan Zared 9 19:20:00 12.0, 8.8, 10.7, 4.4 8.28 34, 46, 52, 56, 57 (Avg:52)
15 Will Carlin Jay = Bra.04564 10 20:05:00 9.8, 7.4, 9.3, 5.8 7.97 34, 42, 50, 52, 43 (Avg:46)
58 Ian Tytler Whiskey 10 20:05:00 11.7, 9.6, 6.2, 5.8 7.97 29, 40, 50, 48, 46 (Avg:46)
114 Denis Sugars Duke 12 20:06:10 11.1, 7.5, 8.2, 5.7 7.96 44, 44, 50, 56, 50 (Avg:50)
29 John Innes Rowallan Venturi 13 20:44:00 10.0, 6.6, 8.5, 6.5 7.72 34, 52, 56, 52, 56 (Avg:54)
39 Belinda Hopley Como 14 20:44:05 10.1, 6.6, 8.2, 6.5 7.72 35, 42, 44, 52, 56 (Avg:48)
105 Gavin Mudge Tesian Out of Time L4 0:00:00 9.7, 7.1, 7.3, 6.3 - 34, 48, 60, 58, 56 (Avg:55)
94 Bill Standfield Joseph Lame L4 0:00:00 10.9, 9.3, 9.3, 7.1 - 33, 42, 41, 42, 45 (Avg:42)
77 Norm Whitelaw Silver Dollar Lame L4 0:00:00 13.2, 8.7, 9.6, 6.8 - 30, 50, 52, 54, 52 (Avg:52)
81 Ken Allan Beau Lame L3 0:00:00 11.0, 9.1, 9.0 - 40, 48, 52, 53 (Avg:51)
130 Peter Barth Warrondi Bobet Heart Rate L3 0:00:00 7.2, 6.9, 10.1 - 40, 44, 58, 61 (Avg:54)
32 Denis Jeffery Elijah Lame L3 0:00:00 10.4, 6.6, 8.2 - 34, 46, 48, 52 (Avg:48)
37 Mario Suprano Jindalee Jubal Metabolics L3 0:00:00 13.2, 9.5, 11.5 - 38, 48, 46, 51 (Avg:48)
31 Denise Trollope Churinga Babooshka Heart Rate L3 0:00:00 13.6, 9.2, 9.6 - 32, 39, 54, 62 (Avg:51)
78 Vincent Comer Blue Heart Rate L2 0:00:00 13.2, 9.0 - 42, 44, 72 (Avg:58)
50 Chris Gates Sunvalley Sharaf Lame L2 0:00:00 13.2, 9.2 - 32, 43, 50 (Avg:46)
25 Jean-Louis Morelle Sharahd Mara Widthdrawn L2 0:00:00 - - 34, 37, 47 (Avg:42)
88 David Nancarrow Sunteck 500 Widthdrawn L2 0:00:00 - - 40, 48, 57, 54 (Avg:53)
111 Brian Trotman Silver Cloud Marquillo Heart Rate L2 0:00:00 13.6, 10.2 - 32, 49, 74 (Avg:61)
113 Wayne Brodie Tina Turner Heart Rate L1 0:00:00 9.7 - 44, 63 (Avg:63)
122 Keith Davenport Yaldon Amar Lame L1 0:00:00 10.2 - 36, 52 (Avg:52)
125 Gerry Drenthe Yaldon Hadari Lame L1 0:00:00 10.7 - 35, 42 (Avg:42)
16 George Sikora Waler Lame L1 0:00:00 7.2 - 35, 46 (Avg:46)
Middleweight
34 Andrew Bailey Tantawanglo Hamal Zahab 1 11:34:00 15.7, 11.2, 19.3, 11.8 13.83 38, 40, 43, 44, 48 (Avg:43)
103 Gayle Holmes Faraway Verdict 2 11:54:00 16.5, 10.9, 15.8, 12.5 13.45 33, 44, 42, 46, 52 (Avg:46)
92 June Petersen Wertaloona Lionel 3 (BC) 12:21:00 15.6, 11.9, 16.7, 9.2 12.96 34, 40, 44, 48, 48 (Avg:45)
89 Bob Sample Sharahd Caprice 3 12:21:00 16.2, 11.6, 16.7, 9.2 12.96 43, 48, 46, 50, 48 (Avg:48)
62 Tracee Males Faraway Vivien 5 12:40:00 15.3, 10.4, 14.7, 11.6 12.63 28, 40, 42, 48, 46 (Avg:44)
85 Graeme Seath Nugget 6 12:50:00 14.9, 11.5, 14.2, 9.8 12.47 30, 47, 50, 56, 50 (Avg:50)
51 Chris Malone Sarchedon 7 12:52:00 13.3, 9.9, 15.7, 12.9 12.44 40, 42, 38, 44, 42 (Avg:41)
8 Julie White Farashah 8 12:58:00 14.8, 11.6, 12.8, 10.4 12.34 30, 44, 50, 54, 46 (Avg:48)
93 Barbara Macdonald Kildara Sharina 9 13:25:00 14.8, 10.6, 13.5, 9.7 11.93 40, 44, 48, 55, 54 (Avg:50)
10 Jason Haigh Rah Fire (exp UAE) 10 13:45:00 13.6, 9.8, 14.9, 9.7 11.64 32, 38, 44, 55, 58 (Avg:48)
76 Mike Sheldon Wen-way Casheen 11 13:47:00 13.5, 10.8, 12.7, 9.6 11.61 29, 40, 46, 49, 48 (Avg:45)
3 Jack Boswell Warrondi Eden 12 14:56:00 13.1, 9.9, 15.0, 6.9 10.71 28, 46, 42, 56, 56 (Avg:50)
49 Alan Lindsay Kintamani Fosta 13 15:05:00 13.3, 8.9, 12.6, 8.8 10.61 36, 40, 40, 52, 55 (Avg:46)
82 Sally Cowan Waitara Red Ned 14 15:53:00 11.1, 9.1, 11.3, 9.1 10.07 30, 39, 43, 36, 47 (Avg:41)
42 Neville Taylor Cam's Benefit 15 16:02:00 13.8, 8.4, 10.1, 8.8 9.98 31, 42, 42, 44, 50 (Avg:44)
126 Sue Fearon Ricval Saharri 16 16:12:00 13.2, 8.9, 11.1, 7.3 9.88 34, 44, 45, 52, 52 (Avg:48)
99 Paul Brown Kharossan Rimini 17 16:22:00 13.9, 9.6, 10.9, 6.3 9.78 36, 48, 50, 52, 50 (Avg:50)
33 Searle Johnston G Kibir 18 17:07:00 15.1, 10.3, 9.4, 5.4 9.35 31, 40, 50, 48, 50 (Avg:47)
127 Ray Morley Silmaril Chand 19 17:12:00 14.7, 7.2, 9.9, 8.3 9.30 36, 38, 46, 46, 43 (Avg:43)
27 Gun Carlson Peppersfield Nabucco 20 17:57:00 11.6, 7.7, 10.9, 6.6 8.91 36, 47, 46, 50, 47 (Avg:47)
5 Craig Seath Cozy 21 18:25:00 10.0, 8.6, 9.5, 6.5 8.69 31, 48, 42, 44, 44 (Avg:44)
47 Terry Wood Andarra Shareef 22 18:34:00 12.1, 9.1, 10.1, 4.9 8.62 30, 40, 42, 47, 46 (Avg:43)
67 Sue Parsons Karumba Travellers Joy 23 18:42:00 12.2, 7.7, 9.3, 6.2 8.56 28, 42, 46, 50, 47 (Avg:46)
73 Sally Holmes Karumba Gemma 24 18:42:05 12.2, 7.7, 9.3, 6.2 8.56 36, 48, 50, 50, 48 (Avg:49)
69 Jo-Anne Francis Gimli 25 19:26:00 9.3, 7.7, 9.7, 6.4 8.23 30, 31, 32, 38, 32 (Avg:33)
6 Wayne Francis Spotty Gandolf 26 19:26:05 9.3, 7.7, 9.7, 6.4 8.23 34, 36, 42, 38, 34 (Avg:37)
110 Joan Donaldson Tawaf Rubens 27 19:47:00 10.7, 7.7, 8.3, 6.1 8.09 40, 49, 52, 54, 46 (Avg:50)
52 Mark Freeman Cedar Ridge Rob Roy 28 19:47:05 15.4, 10.4, 7.1, 4.2 8.09 37, 42, 45, 58, 51 (Avg:49)
106 Geoff Grummitt Moon Boy 29 20:06:05 11.1, 7.5, 8.2, 5.7 7.96 32, 40, 42, 48, 45 (Avg:43)
128 Lyn Nicolle Franklin Ishmaiah 30 20:35:00 9.2, 5.9, 10.1, 7.4 7.77 36, 42, 54, 55, 60 (Avg:52)
120 Steve Opperman Arpo 31 20:39:00 10.3, 6.4, 8.3, 6.9 7.75 36, 38, 43, 42, 42 (Avg:41)
59 Fiona Finigan Rocket Gibraltar 32 20:46:00 10.3, 6.9, 7.7, 6.5 7.70 38, 44, 55, 48, 44 (Avg:47)
74 Cathy Preston Terama Ace High 33 20:48:00 9.8, 6.7, 8.1, 6.7 7.69 32, 44, 48, 54, 52 (Avg:49)
108 Di Kajar Lyndus Lad 34 20:55:00 9.6, 6.6, 8.1, 6.8 7.65 35, 46, 48, 50, 52 (Avg:49)
53 Allan Caslick Richard Lame L4 0:00:00 14.7, 10.2, 15.4, 11.2 - 35, 42, 42, 54, 53 (Avg:47)
21 Kevin Chapman Stoney Karoo Lame L4 0:00:00 12.2, 9.9, 7.6, 5.2 - 34, 41, 42, 47, 44 (Avg:43)
38 Dale Fitz-Gerald Tilligerry Wazir Lame L4 0:00:00 14.0, 10.4, 9.7, 6.3 - 34, 42, 46, 49, 48 (Avg:46)
101 Karen Johanson Revenden Shikari Lame L4 0:00:00 14.8, 9.2, 9.0, 7.3 - 32, 36, 50, 50, 48 (Avg:46)
96 Peter Mounsey Sahala Flash Of Magic Heart Rate L4 0:00:00 14.3, 9.5, 8.9, 6.3 - 35, 40, 54, 58, 67 (Avg:54)
20 Monica Seiler Warrondi Jadir Out of Time L4 0:00:00 9.6, 7.2, 7.3, 6.3 - 39, 44, 56, 52, 54 (Avg:51)
72 Henry Perry Calsine Measles Lame L3 0:00:00 13.6, 7.4, 9.9 - 34, 51, 52, 54 (Avg:52)
18 Gavin Barclay Tarus Heart Rate L2 0:00:00 13.2, 11.3 - 37, 44, 63 (Avg:53)
56 Kevin Bohm Blue Dominance Widthdrawn L2 0:00:00 - - 30, 38, 42, 44 (Avg:41)
109 Jil Bourton Warrondi Jabal Lame L2 0:00:00 12.9, 8.8 - 32, 38, 44 (Avg:41)
24 Marie Claude Morelle Sharahd Romance Widthdrawn L2 0:00:00 - - 38, 42, 44 (Avg:43)
11 Keith Thompson Foraeron Tai Lame L2 0:00:00 10.0, 6.6 - 38, 42, 45 (Avg:43)
44 Graham Appleton Burren-dah Shanazan Lame L1 0:00:00 16.6 - 36, 51 (Avg:51)
100 Carmen Batterham Many Springs Bullaroo Lame L1 0:00:00 13.5 - 29, 40 (Avg:40)
79 Bryan Dupuy Kelkette Park Dean Lame L1 0:00:00 10.9 - 36, 40 (Avg:40)
13 Nigel Fox Pepper Lame L1 0:00:00 11.5 - 42, 56 (Avg:56)
65 Julia Gauci Lyndale Rahmishka Widthdrawn L1 0:00:00 - - 44, 48 (Avg:48)
30 Natalie Innes Nattahl Jaheem Lame L1 0:00:00 9.9 - 36, 48 (Avg:48)
119 Margaret Leebody Mahogany Lame L1 0:00:00 7.2 - 31, 42 (Avg:42)
107 Jill Ross Mirakh Kabar Metabolics L1 0:00:00 9.9 - 37, 52 (Avg:52)
9 Dick Shillabeer Heavy Metal Lame L1 0:00:00 12.1 - 42, 43 (Avg:43)
19 Sandra Faulkner Money Back P/R 0:00:00 - - 35
129 Claude Filleul Silver Cloud Fadlinger Lame P/R 0:00:00 - - 37
118 Rina Long Chesta Lame P/R 0:00:00 - - 30
2 Maggi Winn El-Cid Lame P/R 0:00:00 - - 30
Lightweight
95 Adam Garvin Radi 1 11:20:00 16.3, 11.5, 17.2, 13.1 14.12 30, 40, 44, 52, 46 (Avg:45)
84 Meg Wade Glenallan Shieda 2 12:51:00 14.8, 10.5, 14.5, 11.1 12.45 32, 36, 48, 48, 51 (Avg:45)
97 Lesley Nancarrow Dealbata Siddhi 3 13:25:05 14.9, 10.5, 13.5, 9.7 11.92 30, 36, 41, 48, 51 (Avg:44)
102 Anne Jones Kim Dande Tara 4 13:55:05 14.8, 10.6, 13.5, 8.3 11.50 38, 38, 42, 48, 48 (Avg:44)
86 Rachel Bohm Silver Ibn Zarak 5 (BC) 15:40:00 13.2, 9.4, 11.8, 7.4 10.21 30, 36, 40, 52, 43 (Avg:42)
90 Vanessa Gaudard Sharahd Capri 5 15:40:00 15.4, 9.6, 10.1, 7.4 10.21 37, 44, 42, 44, 42 (Avg:43)
83 Sharon Jones Tricky 7 15:53:05 11.1, 9.1, 11.3, 9.1 10.07 31, 39, 42, 48, 44 (Avg:43)
4 Mark Baensch Roynez 8 16:22:10 15.5, 10.2, 8.8, 6.6 9.77 36, 45, 46, 50, 44 (Avg:46)
70 Richard Pollard Karumba Cassidy 9 16:40:00 10.4, 8.5, 11.1, 8.7 9.60 32, 42, 50, 52, 53 (Avg:49)
66 Joyce Pilkington Halls Viraq 10 16:40:05 10.4, 8.5, 11.1, 8.7 9.60 28, 44, 42, 46, 44 (Avg:44)
115 Sandra Barth Warrondi Grenadier 11 20:35:00 7.2, 6.9, 10.1, 7.4 7.77 35, 40, 47, 49, 56 (Avg:48)
123 Amanda Rayner Yaldon Snowdrift 12 20:39:10 11.0, 6.2, 8.4, 6.8 7.75 30, 42, 46, 50, 43 (Avg:45)
80 Linda McKay Lord Arulis Lame L4 0:00:00 11.6, 10.7, 12.3, 6.3 - 29, 34, 46, 58, 45 (Avg:45)
116 Natalie North Sundance Heart Rate L4 0:00:00 7.2, 7.2, 10.0, 6.9 - 36, 40, 60, 58, 66 (Avg:56)
117 Ken Stephens Sandy Lame L4 0:00:00 10.3, 6.4, 8.3, 6.9 - 36, 36, 45, 40, 41 (Avg:40)
7 Gina Chapman Everon Park Mujabbab Lame L3 0:00:00 15.4, 9.1, 14.9 - 32, 44, 42, 54 (Avg:46)
48 Tova Ducker Narraburra Magnifique Lame L3 0:00:00 14.1, 10.8, 68.5 - 40, 50, 42, 56 (Avg:49)
91 Patricia Croft Anna's Shaahn Lame L2 0:00:00 14.3, 8.3 - 34, 42, 48 (Avg:45)
75 June Kenton El Shahb Elagance Lame L2 0:00:00 13.3, 9.3 - 33, 40, 50 (Avg:45)
63 Judith Burton Abbeline Chrystel Lame L1 0:00:00 15.0 - 34, 44 (Avg:44)
54 Carol Dawson Deciban Metabolics L1 0:00:00 7.1 - 36
26 Sarah Healey Jedna Scorpio Gem Lame L1 0:00:00 7.3 - 38, 46 (Avg:46)
17 Jane Radny Inez Al Nimir Lame L1 0:00:00 14.0 - 38, 48 (Avg:48)
22 Jeanette Waldon Yamegi Topaz Widthdrawn L1 0:00:00 - - 36, 36 (Avg:36)
28 Sharryn Stephans Wongaburra Marakah Lame P/R 0:00:00 - - 34
Junior
46 Nathan Anderson Strauss 1 12:44:00 15.6, 10.3, 14.5, 11.4 12.57 32, 42, 48, 52, 60 (Avg:50)
36 Damien Tye Say-Go 2 13:06:00 14.3, 10.4, 15.2, 10.1 12.21 32, 44, 46, 50, 55 (Avg:48)
124 Nicole Pienaar Leedale Jadea 3 15:12:00 11.5, 9.4, 11.9, 9.5 10.53 36, 44, 38, 44, 44 (Avg:42)
23 Nathan Peel Shareef 4 (BC) 15:12:05 12.9, 8.8, 11.5, 9.8 10.53 34, 41, 49, 44, 48 (Avg:45)
41 Jamie Albert Sundance 5 15:59:00 12.2, 9.1, 11.5, 7.8 10.01 29, 36, 40, 46, 52 (Avg:43)
60 Laura Cheney Fewson Coolaroo Cassandra 6 20:44:00 10.3, 6.6, 8.2, 6.5 7.72 31, 39, 46, 56, 55 (Avg:49)
112 Mardi Peal Sidney Kidman Lame L4 0:00:00 9.6, 6.6, 8.1, 6.8 - 34, 46, 54, 56, 60 (Avg:54)
57 Tina Walker Sbara Gunner Windy Lame L4 0:00:00 7.2, 6.2, 11.9, 6.5 - 33, 36, 43, 46, 54 (Avg:44)
14 Jade Mclaren Cuddles Heart Rate L2 0:00:00 9.7, 6.7 - 24, 48, 67 (Avg:57)
121 Catherine O'Brien Christy's Girl Lame L2 0:00:00 11.0, 9.4 - 36, 42, 56 (Avg:49)
12 Lara Sample Sharahd Carah Lame L2 0:00:00 15.4, 11.4 - 35, 38, 36 (Avg:37)
55 Ian Symons Polaris Metabolics L2 0:00:00 15.5, 11.9 - 34, 45, 56 (Avg:50)
40 Corey Nix Dove Cote Charro Lame L1 0:00:00 10.4 - 38, 45 (Avg:45)
104 John Shillabeer Cherry Lame L1 0:00:00 12.1 - 34, 44 (Avg:44)
35 Melanie Tye Bonnie Lame L1 0:00:00 12.2 - 34, 44 (Avg:44)